createdAt,value
2024-01-10T00:01:46.750Z,54.10
2024-01-10T00:04:17.626Z,46.00
2024-01-10T00:06:48.812Z,48.80
2024-01-10T00:09:20.488Z,53.00
2024-01-10T00:11:49.278Z,52.30
2024-01-10T00:14:17.769Z,48.60
2024-01-10T00:16:45.876Z,51.00
2024-01-10T00:19:13.875Z,50.10
2024-01-10T00:21:42.341Z,54.30
2024-01-10T00:24:10.291Z,54.10
2024-01-10T00:26:38.406Z,52.10
2024-01-10T00:29:10.629Z,51.30
2024-01-10T00:31:38.636Z,54.40
2024-01-10T00:34:15.728Z,53.70
2024-01-10T00:36:44.961Z,56.10
2024-01-10T00:39:12.892Z,52.00
2024-01-10T00:41:40.808Z,50.40
2024-01-10T00:44:09.240Z,53.30
2024-01-10T00:46:37.739Z,52.90
2024-01-10T00:49:09.557Z,50.70
2024-01-10T00:51:37.412Z,56.90
2024-01-10T00:54:05.781Z,53.40
2024-01-10T00:56:33.616Z,53.80
2024-01-10T00:59:01.448Z,49.40
2024-01-10T01:01:31.096Z,49.00
2024-01-10T01:03:58.993Z,46.20
2024-01-10T01:06:27.094Z,45.30
2024-01-10T01:08:54.916Z,37.20
2024-01-10T01:11:22.783Z,35.40
2024-01-10T01:13:53.394Z,38.50
2024-01-10T01:16:21.152Z,36.40
2024-01-10T01:18:49.054Z,38.30
2024-01-10T01:21:16.897Z,38.00
2024-01-10T01:23:45.271Z,36.40
2024-01-10T01:26:14.868Z,37.90
2024-01-10T01:28:42.792Z,38.40
2024-01-10T01:31:10.782Z,36.90
2024-01-10T01:33:40.748Z,37.90
2024-01-10T01:36:09.030Z,37.10
2024-01-10T01:38:37.400Z,39.80
2024-01-10T01:41:07.218Z,41.20
2024-01-10T01:43:36.530Z,38.10
2024-01-10T01:46:04.785Z,41.90
2024-01-10T01:48:32.854Z,41.10
2024-01-10T01:51:04.090Z,42.30
2024-01-10T01:53:33.385Z,43.30
2024-01-10T01:56:08.449Z,42.40
2024-01-10T01:58:37.792Z,43.70
2024-01-10T02:01:06.774Z,44.30
2024-01-10T02:03:35.760Z,43.60
2024-01-10T02:06:05.208Z,43.60
2024-01-10T02:08:33.898Z,44.90
2024-01-10T02:11:04.099Z,43.90
2024-01-10T02:13:34.028Z,57.40
2024-01-10T02:16:07.290Z,45.00
2024-01-10T02:18:38.769Z,47.20
2024-01-10T02:21:13.248Z,43.70
2024-01-10T02:23:40.965Z,42.70
2024-01-10T02:26:08.840Z,48.20
2024-01-10T02:28:36.944Z,45.30
2024-01-10T02:31:05.231Z,48.30
2024-01-10T02:33:39.930Z,51.30
2024-01-10T02:36:14.811Z,49.70
2024-01-10T02:38:48.886Z,49.40
2024-01-10T02:41:23.065Z,53.00
2024-01-10T02:43:51.076Z,53.30
2024-01-10T02:46:19.882Z,49.10
2024-01-10T02:48:48.072Z,51.30
2024-01-10T02:51:16.435Z,48.50
2024-01-10T02:53:45.155Z,52.30
2024-01-10T02:56:12.955Z,55.30
2024-01-10T02:58:40.828Z,52.40
2024-01-10T03:01:10.515Z,50.50
2024-01-10T03:03:41.038Z,51.90
2024-01-10T03:06:08.971Z,51.10
2024-01-10T03:08:37.055Z,43.40
2024-01-10T03:11:09.111Z,46.40
2024-01-10T03:13:37.074Z,48.10
2024-01-10T03:16:05.005Z,46.20
2024-01-10T03:18:32.900Z,41.10
2024-01-10T03:21:00.882Z,43.50
2024-01-10T03:23:37.136Z,48.60
2024-01-10T03:26:04.982Z,44.90
2024-01-10T03:28:35.539Z,49.30
2024-01-10T03:31:03.451Z,41.80
2024-01-10T03:33:31.280Z,42.00
2024-01-10T03:35:59.172Z,43.50
2024-01-10T03:38:27.270Z,41.30
2024-01-10T03:40:55.263Z,42.60
2024-01-10T03:43:23.167Z,44.10
2024-01-10T03:45:50.887Z,41.00
2024-01-10T03:48:18.791Z,41.40
2024-01-10T03:50:50.601Z,45.30
2024-01-10T03:53:18.597Z,46.80
2024-01-10T03:55:46.367Z,46.90
2024-01-10T03:58:17.976Z,40.50
2024-01-10T04:00:45.832Z,41.70
2024-01-10T04:03:13.788Z,39.70
2024-01-10T04:05:42.505Z,40.50
2024-01-10T04:08:10.538Z,43.50
2024-01-10T04:10:38.493Z,35.80
2024-01-10T04:13:10.318Z,42.60
2024-01-10T04:15:38.744Z,37.70
2024-01-10T04:18:06.938Z,39.30
2024-01-10T04:20:34.833Z,40.50
2024-01-10T04:23:02.919Z,37.30
2024-01-10T04:25:31.576Z,40.90
2024-01-10T04:27:59.377Z,39.10
2024-01-10T04:30:29.501Z,37.90
2024-01-10T04:32:57.354Z,34.90
2024-01-10T04:35:32.138Z,38.00
2024-01-10T04:38:00.215Z,34.30
2024-01-10T04:40:28.336Z,40.20
2024-01-10T04:42:56.331Z,34.70
2024-01-10T04:45:24.202Z,37.00
2024-01-10T04:47:52.446Z,32.90
2024-01-10T04:50:20.472Z,37.20
2024-01-10T04:52:52.237Z,38.70
2024-01-10T04:55:20.453Z,35.50
2024-01-10T04:57:49.476Z,35.70
2024-01-10T05:00:17.400Z,35.90
2024-01-10T05:02:45.186Z,37.30
2024-01-10T05:05:13.140Z,38.90
2024-01-10T05:07:41.020Z,35.90
2024-01-10T05:10:08.989Z,35.10
2024-01-10T05:12:36.812Z,37.90
2024-01-10T05:15:05.299Z,33.30
2024-01-10T05:17:33.186Z,31.20
2024-01-10T05:20:01.113Z,32.70
2024-01-10T05:22:28.981Z,32.30
2024-01-10T05:24:56.751Z,31.30
2024-01-10T05:27:24.720Z,32.30
2024-01-10T05:29:52.804Z,32.20
2024-01-10T05:32:20.620Z,32.60
2024-01-10T05:34:50.855Z,33.90
2024-01-10T05:37:18.820Z,33.50
2024-01-10T05:39:46.765Z,34.40
2024-01-10T05:42:15.495Z,30.80
2024-01-10T05:44:43.267Z,36.60
2024-01-10T05:47:11.234Z,37.50
2024-01-10T05:49:39.313Z,38.20
2024-01-10T05:52:07.277Z,37.50
2024-01-10T05:54:36.372Z,38.80
2024-01-10T05:57:04.452Z,41.70
2024-01-10T05:59:34.653Z,36.90
2024-01-10T06:02:08.468Z,37.10
2024-01-10T06:04:36.264Z,38.10
2024-01-10T06:07:05.742Z,33.90
2024-01-10T06:09:33.770Z,34.50
2024-01-10T06:12:01.707Z,37.60
2024-01-10T06:14:29.612Z,35.30
2024-01-10T06:17:00.684Z,36.80
2024-01-10T06:19:28.658Z,38.00
2024-01-10T06:21:57.180Z,36.70
2024-01-10T06:24:25.043Z,36.40
2024-01-10T06:26:53.091Z,39.30
2024-01-10T06:29:21.107Z,40.10
2024-01-10T06:31:49.269Z,38.50
2024-01-10T06:34:17.357Z,46.30
2024-01-10T06:36:45.679Z,39.20
2024-01-10T06:39:14.009Z,43.50
2024-01-10T06:41:47.732Z,39.90
2024-01-10T06:44:15.789Z,56.60
2024-01-10T06:46:43.692Z,43.90
2024-01-10T06:49:12.165Z,52.00
2024-01-10T06:51:40.177Z,51.60
2024-01-10T06:54:15.818Z,44.60
2024-01-10T06:56:46.481Z,52.10
2024-01-10T06:59:15.739Z,43.30
2024-01-10T07:01:45.198Z,39.30
2024-01-10T07:04:15.061Z,49.10
2024-01-10T07:06:44.825Z,43.20
2024-01-10T07:09:12.640Z,44.70
2024-01-10T07:11:42.184Z,57.40
2024-01-10T07:14:10.201Z,45.30
2024-01-10T07:16:38.124Z,77.60
2024-01-10T07:19:06.212Z,40.50
2024-01-10T07:21:34.074Z,46.00
2024-01-10T07:24:03.145Z,51.40
2024-01-10T07:26:31.531Z,38.00
2024-01-10T07:29:09.699Z,39.40
2024-01-10T07:31:38.363Z,40.50
2024-01-10T07:34:07.037Z,37.20
2024-01-10T07:36:42.118Z,32.70
2024-01-10T07:39:09.900Z,31.20
2024-01-10T07:41:38.203Z,33.50
2024-01-10T07:44:06.399Z,46.80
2024-01-10T07:46:39.654Z,36.10
2024-01-10T07:49:07.980Z,42.70
2024-01-10T07:51:35.794Z,37.70
2024-01-10T07:54:06.779Z,45.60
2024-01-10T07:56:34.587Z,39.00
2024-01-10T07:59:04.068Z,41.30
2024-01-10T08:01:33.985Z,38.90
2024-01-10T08:04:01.949Z,38.60
2024-01-10T08:06:33.340Z,49.80
2024-01-10T08:09:05.480Z,49.90
2024-01-10T08:11:33.722Z,34.90
2024-01-10T08:14:03.973Z,38.10
2024-01-10T08:16:33.617Z,37.40
2024-01-10T08:19:01.905Z,35.40
2024-01-10T08:21:30.226Z,32.90
2024-01-10T08:23:58.957Z,29.90
2024-01-10T08:26:28.309Z,28.80
2024-01-10T08:29:03.221Z,29.20
2024-01-10T08:31:31.361Z,38.70
2024-01-10T08:33:59.476Z,33.80
2024-01-10T08:36:27.296Z,31.50
2024-01-10T08:38:55.678Z,33.00
2024-01-10T08:41:23.791Z,34.50
2024-01-10T08:43:52.700Z,38.90
2024-01-10T08:46:22.038Z,39.10
2024-01-10T08:48:50.103Z,44.60
2024-01-10T08:51:18.390Z,40.50
2024-01-10T08:53:46.502Z,39.40
2024-01-10T08:56:16.165Z,36.40
2024-01-10T08:58:44.414Z,49.00
2024-01-10T09:01:12.543Z,61.60
2024-01-10T09:03:41.449Z,35.50
2024-01-10T09:06:12.038Z,59.00
2024-01-10T09:08:43.235Z,44.90
2024-01-10T09:11:13.419Z,36.10
2024-01-10T09:13:42.028Z,56.40
2024-01-10T09:16:10.940Z,44.80
2024-01-10T09:18:40.153Z,47.60
2024-01-10T09:21:08.453Z,46.90
2024-01-10T09:23:36.645Z,50.20
2024-01-10T09:26:04.836Z,47.40
2024-01-10T09:28:33.009Z,44.60
2024-01-10T09:31:01.517Z,46.60
2024-01-10T09:33:34.046Z,53.50
2024-01-10T09:36:05.012Z,53.20
2024-01-10T09:38:40.423Z,47.80
2024-01-10T09:41:08.793Z,51.00
2024-01-10T09:43:37.017Z,52.90
2024-01-10T09:46:07.807Z,50.20
2024-01-10T09:48:42.767Z,51.00
2024-01-10T09:51:17.612Z,44.50
2024-01-10T09:53:53.558Z,46.00
2024-01-10T09:56:25.561Z,41.30
2024-01-10T09:58:54.873Z,46.80
2024-01-10T10:01:23.012Z,44.00
2024-01-10T10:03:53.057Z,41.60
2024-01-10T10:06:21.826Z,43.00
2024-01-10T10:08:50.191Z,42.20
2024-01-10T10:11:18.337Z,42.00
2024-01-10T10:13:46.719Z,43.80
2024-01-10T10:16:14.857Z,43.80
2024-01-10T10:18:44.327Z,44.70
2024-01-10T10:21:16.008Z,47.30
2024-01-10T10:23:44.736Z,47.40
2024-01-10T10:26:22.306Z,49.40
2024-01-10T10:28:53.575Z,60.60
2024-01-10T10:31:21.972Z,50.60
2024-01-10T10:33:52.407Z,38.10
2024-01-10T10:36:21.206Z,44.00
2024-01-10T10:38:50.000Z,41.30
2024-01-10T10:41:19.632Z,34.80
2024-01-10T10:43:49.305Z,41.50
2024-01-10T10:46:17.562Z,42.20
2024-01-10T10:48:45.925Z,41.10
2024-01-10T10:51:19.665Z,43.00
2024-01-10T10:53:48.900Z,44.20
2024-01-10T10:56:17.273Z,45.80
2024-01-10T10:58:45.716Z,40.40
2024-01-10T11:01:15.219Z,40.40
2024-01-10T11:03:46.196Z,47.60
2024-01-10T11:06:14.512Z,43.00
2024-01-10T11:08:48.688Z,39.40
2024-01-10T11:11:24.400Z,44.90
2024-01-10T11:14:02.721Z,40.40
2024-01-10T11:16:57.919Z,40.30
2024-01-10T11:19:37.241Z,40.30
2024-01-10T11:22:24.032Z,42.80
2024-01-10T11:24:53.245Z,38.00
2024-01-10T11:27:28.034Z,39.70
2024-01-10T11:30:01.358Z,40.10
2024-01-10T11:32:29.638Z,39.70
2024-01-10T11:35:08.586Z,44.90
2024-01-10T11:37:42.188Z,41.80
2024-01-10T11:40:11.101Z,40.70
2024-01-10T11:42:51.441Z,42.20
2024-01-10T11:45:31.650Z,35.80
2024-01-10T11:47:59.936Z,48.10
2024-01-10T11:50:28.715Z,50.70
2024-01-10T11:52:59.638Z,49.40
2024-01-10T11:55:46.513Z,45.30
2024-01-10T11:58:14.506Z,42.40
2024-01-10T12:00:42.684Z,46.80
2024-01-10T12:03:12.465Z,41.80
2024-01-10T12:05:41.549Z,41.60
2024-01-10T12:08:09.807Z,44.10
2024-01-10T12:10:47.720Z,52.90
2024-01-10T12:13:15.931Z,45.90
2024-01-10T12:15:44.703Z,40.20
2024-01-10T12:18:12.941Z,39.10
2024-01-10T12:20:44.753Z,43.10
2024-01-10T12:23:12.890Z,38.70
2024-01-10T12:25:41.152Z,32.00
2024-01-10T12:28:19.496Z,37.40
2024-01-10T12:30:54.240Z,36.40
2024-01-10T12:33:27.030Z,39.60
2024-01-10T12:36:05.369Z,37.90
2024-01-10T12:38:34.225Z,40.20
2024-01-10T12:41:02.872Z,49.80
2024-01-10T12:43:30.829Z,50.60
2024-01-10T12:46:06.066Z,48.10
2024-01-10T12:48:34.879Z,44.60
2024-01-10T12:51:06.991Z,45.10
2024-01-10T12:53:36.160Z,48.80
2024-01-10T12:56:05.771Z,39.10
2024-01-10T12:58:36.716Z,40.00
2024-01-10T13:01:04.829Z,37.90
2024-01-10T13:03:34.082Z,37.70
2024-01-10T13:06:05.363Z,38.50
2024-01-10T13:08:34.940Z,40.30
2024-01-10T13:11:09.994Z,44.20
2024-01-10T13:13:38.255Z,39.80
2024-01-10T13:16:08.579Z,40.10
2024-01-10T13:18:36.762Z,42.90
2024-01-10T13:21:05.053Z,39.30
2024-01-10T13:23:43.382Z,37.80
2024-01-10T13:26:18.294Z,38.20
2024-01-10T13:28:46.551Z,34.30
2024-01-10T13:31:18.721Z,35.40
2024-01-10T13:33:48.018Z,37.80
2024-01-10T13:36:16.583Z,37.30
2024-01-10T13:38:47.050Z,38.90
2024-01-10T13:41:15.075Z,39.20
2024-01-10T13:43:43.320Z,42.80
2024-01-10T13:46:11.389Z,40.20
2024-01-10T13:48:39.741Z,41.50
2024-01-10T13:51:08.334Z,40.50
2024-01-10T13:53:41.455Z,38.10
2024-01-10T13:56:09.806Z,41.20
2024-01-10T13:58:38.569Z,42.00
2024-01-10T14:01:08.872Z,41.80
2024-01-10T14:03:43.863Z,41.80
2024-01-10T14:06:12.718Z,44.00
2024-01-10T14:08:44.800Z,43.10
2024-01-10T14:11:13.124Z,43.40
2024-01-10T14:13:41.577Z,44.90
2024-01-10T14:16:10.107Z,48.00
2024-01-10T14:18:38.283Z,64.90
2024-01-10T14:21:09.262Z,50.20
2024-01-10T14:23:37.562Z,49.30
2024-01-10T14:26:06.859Z,50.70
2024-01-10T14:28:35.450Z,48.80
2024-01-10T14:31:13.572Z,44.40
2024-01-10T14:33:47.252Z,43.00
2024-01-10T14:36:16.073Z,41.30
2024-01-10T14:38:46.375Z,51.70
2024-01-10T14:41:15.074Z,42.40
2024-01-10T14:43:43.763Z,42.20
2024-01-10T14:46:12.669Z,44.80
2024-01-10T14:48:41.994Z,52.10
2024-01-10T14:51:13.865Z,55.10
2024-01-10T14:53:43.888Z,49.00
2024-01-10T14:56:13.631Z,53.30
2024-01-10T14:58:46.621Z,61.20
2024-01-10T15:03:57.365Z,59.30
2024-01-10T15:06:33.258Z,52.20
2024-01-10T15:09:09.157Z,58.90
2024-01-10T15:11:40.402Z,58.10
2024-01-10T15:14:13.537Z,59.30
2024-01-10T15:16:42.870Z,49.80
2024-01-10T15:19:11.554Z,56.20
2024-01-10T15:21:40.226Z,55.80
2024-01-10T15:24:08.975Z,54.70
2024-01-10T15:26:37.244Z,50.30
2024-01-10T15:29:07.273Z,48.80
2024-01-10T15:31:36.990Z,59.20
2024-01-10T15:34:08.707Z,63.20
2024-01-10T15:36:45.727Z,55.10
2024-01-10T15:39:27.106Z,50.70
2024-01-10T15:41:58.426Z,51.10
2024-01-10T15:44:30.112Z,49.00
2024-01-10T15:47:03.570Z,55.30
2024-01-10T15:49:35.204Z,47.80
2024-01-10T15:52:05.863Z,46.00
2024-01-10T15:54:40.370Z,53.70
2024-01-10T15:57:12.689Z,49.20
2024-01-10T15:59:43.700Z,45.50
2024-01-10T16:02:16.819Z,40.60
2024-01-10T16:04:48.219Z,39.30
2024-01-10T16:07:28.477Z,41.70
2024-01-10T16:09:59.251Z,35.40
2024-01-10T16:12:29.453Z,40.80
2024-01-10T16:15:02.338Z,41.60
2024-01-10T16:17:34.198Z,54.50
2024-01-10T16:20:08.011Z,50.70
2024-01-10T16:22:43.012Z,41.70
2024-01-10T16:25:18.117Z,50.00
2024-01-10T16:27:49.272Z,56.10
2024-01-10T16:30:19.964Z,35.70
2024-01-10T16:32:48.396Z,32.40
2024-01-10T16:35:20.961Z,36.60
2024-01-10T16:37:49.059Z,35.10
2024-01-10T16:40:20.291Z,37.80
2024-01-10T16:42:50.633Z,40.40
2024-01-10T16:45:18.726Z,40.70
2024-01-10T16:47:48.608Z,45.10
2024-01-10T16:50:17.422Z,41.50
2024-01-10T16:52:46.312Z,40.60
2024-01-10T16:55:15.895Z,37.80
2024-01-10T16:57:45.197Z,41.40
2024-01-10T17:00:15.581Z,35.00
2024-01-10T17:02:43.940Z,40.10
2024-01-10T17:05:11.919Z,31.40
2024-01-10T17:07:39.806Z,28.30
2024-01-10T17:10:09.544Z,29.80
2024-01-10T17:12:37.874Z,28.80
2024-01-10T17:15:06.414Z,31.60
2024-01-10T17:17:44.577Z,31.10
2024-01-10T17:20:14.740Z,28.00
2024-01-10T17:22:42.716Z,26.70
2024-01-10T17:25:12.687Z,31.60
2024-01-10T17:27:46.280Z,28.20
2024-01-10T17:30:16.228Z,24.20
2024-01-10T17:32:45.180Z,22.60
2024-01-10T17:35:16.841Z,24.60
2024-01-10T17:37:53.172Z,22.70
2024-01-10T17:40:21.312Z,26.70
2024-01-10T17:42:52.311Z,27.60
2024-01-10T17:45:21.621Z,28.00
2024-01-10T17:47:49.642Z,30.90
2024-01-10T17:50:19.935Z,31.70
2024-01-10T17:52:49.329Z,32.90
2024-01-10T17:55:17.512Z,36.00
2024-01-10T17:57:45.343Z,40.00
2024-01-10T18:00:15.722Z,40.80
2024-01-10T18:02:44.063Z,43.20
2024-01-10T18:05:37.982Z,59.50
2024-01-10T18:08:09.195Z,45.20
2024-01-10T18:10:41.520Z,41.60
2024-01-10T18:13:11.586Z,39.50
2024-01-10T18:15:42.136Z,38.50
2024-01-10T18:18:15.125Z,38.70
2024-01-10T18:21:02.939Z,36.30
2024-01-10T18:23:31.057Z,37.40
2024-01-10T18:26:04.428Z,42.70
2024-01-10T18:28:35.989Z,36.50
2024-01-10T18:31:05.619Z,35.00
2024-01-10T18:33:34.569Z,42.10
2024-01-10T18:36:02.624Z,35.90
2024-01-10T18:38:31.719Z,35.70
2024-01-10T18:41:01.178Z,39.10
2024-01-10T18:43:31.242Z,35.80
2024-01-10T18:45:59.310Z,37.70
2024-01-10T18:48:27.741Z,39.30
2024-01-10T18:50:59.083Z,42.10
2024-01-10T18:53:27.532Z,42.50
2024-01-10T18:55:58.857Z,39.30
2024-01-10T18:58:27.403Z,38.20
2024-01-10T19:00:55.684Z,36.70
2024-01-10T19:03:24.227Z,38.50
2024-01-10T19:05:54.430Z,37.00
2024-01-10T19:08:31.481Z,34.60
2024-01-10T19:11:03.542Z,33.90
2024-01-10T19:13:40.807Z,37.20
2024-01-10T19:16:14.590Z,39.30
2024-01-10T19:18:43.746Z,42.10
2024-01-10T19:21:11.706Z,42.50
2024-01-10T19:23:40.366Z,39.70
2024-01-10T19:26:08.796Z,39.50
2024-01-10T19:28:39.298Z,36.50
2024-01-10T19:31:09.946Z,36.00
2024-01-10T19:33:38.257Z,42.00
2024-01-10T19:36:07.804Z,33.80
2024-01-10T19:38:35.911Z,50.00
2024-01-10T19:41:04.211Z,41.00
2024-01-10T19:43:38.575Z,39.10
2024-01-10T19:46:06.744Z,41.50
2024-01-10T19:48:36.292Z,41.10
2024-01-10T19:51:04.981Z,35.10
2024-01-10T19:53:33.906Z,41.10
2024-01-10T19:56:05.467Z,40.80
2024-01-10T19:58:33.707Z,37.50
2024-01-10T20:01:02.417Z,35.80
2024-01-10T20:03:30.576Z,37.30
2024-01-10T20:05:58.781Z,38.20
2024-01-10T20:08:26.845Z,38.50
2024-01-10T20:10:55.745Z,38.80
2024-01-10T20:13:23.908Z,42.00
2024-01-10T20:15:56.057Z,37.30
2024-01-10T20:18:25.735Z,39.00
2024-01-10T20:20:55.538Z,44.30
2024-01-10T20:23:24.381Z,41.60
2024-01-10T20:25:53.576Z,45.50
2024-01-10T20:28:22.236Z,38.60
2024-01-10T20:30:56.420Z,41.70
2024-01-10T20:33:24.428Z,38.70
2024-01-10T20:35:52.774Z,37.90
2024-01-10T20:38:27.106Z,32.30
2024-01-10T20:41:02.739Z,37.80
2024-01-10T20:43:38.644Z,40.00
2024-01-10T20:46:15.028Z,41.10
2024-01-10T20:48:43.146Z,38.60
2024-01-10T20:51:11.254Z,38.10
2024-01-10T20:53:40.361Z,36.80
2024-01-10T20:56:08.976Z,37.00
2024-01-10T20:58:37.141Z,34.80
2024-01-10T21:01:10.164Z,33.50
2024-01-10T21:06:16.315Z,40.40
2024-01-10T21:11:14.269Z,37.80
2024-01-10T21:13:42.386Z,38.50
2024-01-10T21:16:10.257Z,41.30
2024-01-10T21:18:42.713Z,44.30
2024-01-10T21:21:10.850Z,39.80
2024-01-10T21:23:40.171Z,43.00
2024-01-10T21:26:09.520Z,46.90
2024-01-10T21:28:37.749Z,45.70
2024-01-10T21:31:05.951Z,48.60
2024-01-10T21:33:34.069Z,45.80
2024-01-10T21:36:02.910Z,46.30
2024-01-10T21:38:32.014Z,45.50
2024-01-10T21:41:00.007Z,43.70
2024-01-10T21:43:28.152Z,44.20
2024-01-10T21:45:56.141Z,43.10
2024-01-10T21:48:24.782Z,41.70
2024-01-10T21:50:53.243Z,37.90
2024-01-10T21:53:21.537Z,43.10
2024-01-10T21:55:49.680Z,42.40
2024-01-10T21:58:17.731Z,43.10
2024-01-10T22:00:45.560Z,40.80
2024-01-10T22:03:21.505Z,42.80
2024-01-10T22:05:56.706Z,39.70
2024-01-10T22:08:24.648Z,41.20
2024-01-10T22:10:52.594Z,38.60
2024-01-10T22:13:21.629Z,37.60
2024-01-10T22:15:54.229Z,33.70
2024-01-10T22:18:27.789Z,39.00
2024-01-10T22:20:57.109Z,35.70
2024-01-10T22:23:25.362Z,36.40
2024-01-10T22:26:02.794Z,35.10
2024-01-10T22:28:33.012Z,34.80
2024-01-10T22:31:01.212Z,32.10
2024-01-10T22:33:29.217Z,37.20
2024-01-10T22:35:57.801Z,34.20
2024-01-10T22:38:26.356Z,33.50
2024-01-10T22:40:54.369Z,34.20
2024-01-10T22:43:22.301Z,33.40
2024-01-10T22:45:50.218Z,33.30
2024-01-10T22:48:20.588Z,34.40
2024-01-10T22:50:49.560Z,32.40
2024-01-10T22:53:18.017Z,36.20
2024-01-10T22:55:48.678Z,32.50
2024-01-10T22:58:19.920Z,32.20
2024-01-10T23:00:49.698Z,32.40
2024-01-10T23:03:18.019Z,31.10
2024-01-10T23:05:46.872Z,30.10
2024-01-10T23:08:14.997Z,32.40
2024-01-10T23:10:44.271Z,32.10
2024-01-10T23:13:13.299Z,32.40
2024-01-10T23:15:46.009Z,30.10
2024-01-10T23:18:14.258Z,29.50
2024-01-10T23:20:42.508Z,32.10
2024-01-10T23:23:10.484Z,31.80
2024-01-10T23:25:38.355Z,32.30
2024-01-10T23:28:08.235Z,31.00
2024-01-10T23:30:36.829Z,31.40
2024-01-10T23:33:07.848Z,32.30
2024-01-10T23:35:44.756Z,34.70
2024-01-10T23:38:23.590Z,33.50
2024-01-10T23:40:52.207Z,35.50
2024-01-10T23:43:26.591Z,36.60
2024-01-10T23:45:57.226Z,37.00
2024-01-10T23:48:26.300Z,47.20
2024-01-10T23:50:54.495Z,33.00
2024-01-10T23:53:25.597Z,32.00
2024-01-10T23:55:54.783Z,31.30
2024-01-10T23:58:25.857Z,31.40
